sensor_id;sensor_type;location;lat;lon;timestamp;pressure;altitude;pressure_sealevel;temperature;humidity
75681;BME280;64294;49.176;16.626;2023-03-04T00:00:10;99550.13;;;-2.91;100.00
75681;BME280;64294;49.176;16.626;2023-03-04T00:02:36;99547.38;;;-2.91;100.00
75681;BME280;64294;49.176;16.626;2023-03-04T00:05:01;99542.88;;;-2.97;100.00
75681;BME280;64294;49.176;16.626;2023-03-04T00:07:28;99542.53;;;-2.99;100.00
75681;BME280;64294;49.176;16.626;2023-03-04T00:09:53;99541.44;;;-3.02;100.00
75681;BME280;64294;49.176;16.626;2023-03-04T00:12:19;99547.25;;;-3.00;100.00
75681;BME280;64294;49.176;16.626;2023-03-04T00:14:44;99535.94;;;-3.02;100.00
75681;BME280;64294;49.176;16.626;2023-03-04T00:17:09;99536.50;;;-3.07;100.00
75681;BME280;64294;49.176;16.626;2023-03-04T00:19:35;99537.16;;;-3.03;100.00
75681;BME280;64294;49.176;16.626;2023-03-04T00:22:01;99530.78;;;-3.13;100.00
75681;BME280;64294;49.176;16.626;2023-03-04T00:24:27;99533.97;;;-3.14;100.00
75681;BME280;64294;49.176;16.626;2023-03-04T00:26:52;99535.50;;;-3.13;100.00
75681;BME280;64294;49.176;16.626;2023-03-04T00:29:17;99534.06;;;-3.05;100.00
75681;BME280;64294;49.176;16.626;2023-03-04T00:31:43;99536.34;;;-3.16;100.00
75681;BME280;64294;49.176;16.626;2023-03-04T00:34:08;99536.03;;;-3.18;100.00
75681;BME280;64294;49.176;16.626;2023-03-04T00:36:34;99544.50;;;-3.25;100.00
75681;BME280;64294;49.176;16.626;2023-03-04T00:38:59;99531.09;;;-3.23;100.00
75681;BME280;64294;49.176;16.626;2023-03-04T00:41:24;99529.97;;;-3.39;100.00
75681;BME280;64294;49.176;16.626;2023-03-04T00:43:50;99517.53;;;-3.43;100.00
75681;BME280;64294;49.176;16.626;2023-03-04T00:46:15;99528.63;;;-3.47;100.00
75681;BME280;64294;49.176;16.626;2023-03-04T00:48:41;99525.22;;;-3.51;100.00
75681;BME280;64294;49.176;16.626;2023-03-04T00:51:06;99516.41;;;-3.58;100.00
75681;BME280;64294;49.176;16.626;2023-03-04T00:53:32;99510.03;;;-3.68;100.00
75681;BME280;64294;49.176;16.626;2023-03-04T00:55:57;99508.22;;;-3.75;100.00
75681;BME280;64294;49.176;16.626;2023-03-04T00:58:23;99504.38;;;-3.77;100.00
75681;BME280;64294;49.176;16.626;2023-03-04T01:00:48;99510.84;;;-3.84;100.00
75681;BME280;64294;49.176;16.626;2023-03-04T01:03:13;99505.38;;;-3.84;100.00
75681;BME280;64294;49.176;16.626;2023-03-04T01:05:39;99500.50;;;-3.92;100.00
75681;BME280;64294;49.176;16.626;2023-03-04T01:08:05;99494.66;;;-3.94;100.00
75681;BME280;64294;49.176;16.626;2023-03-04T01:10:30;99497.63;;;-4.02;100.00
75681;BME280;64294;49.176;16.626;2023-03-04T01:12:56;99498.81;;;-4.03;100.00
75681;BME280;64294;49.176;16.626;2023-03-04T01:15:22;99489.66;;;-4.12;100.00
75681;BME280;64294;49.176;16.626;2023-03-04T01:17:47;99487.44;;;-4.17;100.00
75681;BME280;64294;49.176;16.626;2023-03-04T01:20:14;99490.97;;;-4.17;100.00
75681;BME280;64294;49.176;16.626;2023-03-04T01:22:39;99483.59;;;-4.20;100.00
75681;BME280;64294;49.176;16.626;2023-03-04T01:25:06;99477.44;;;-4.24;100.00
75681;BME280;64294;49.176;16.626;2023-03-04T01:27:31;99477.09;;;-4.26;100.00
75681;BME280;64294;49.176;16.626;2023-03-04T01:29:57;99471.09;;;-4.21;100.00
75681;BME280;64294;49.176;16.626;2023-03-04T01:32:22;99471.94;;;-4.24;100.00
75681;BME280;64294;49.176;16.626;2023-03-04T01:34:47;99464.59;;;-4.27;100.00
75681;BME280;64294;49.176;16.626;2023-03-04T01:37:13;99467.84;;;-4.32;100.00
75681;BME280;64294;49.176;16.626;2023-03-04T01:39:38;99462.47;;;-4.36;100.00
75681;BME280;64294;49.176;16.626;2023-03-04T01:42:04;99455.00;;;-4.35;100.00
75681;BME280;64294;49.176;16.626;2023-03-04T01:44:29;99449.16;;;-4.37;100.00
75681;BME280;64294;49.176;16.626;2023-03-04T01:46:55;99454.31;;;-4.39;100.00
75681;BME280;64294;49.176;16.626;2023-03-04T01:49:21;99454.66;;;-4.37;100.00
75681;BME280;64294;49.176;16.626;2023-03-04T01:51:50;99438.63;;;-4.39;100.00
75681;BME280;64294;49.176;16.626;2023-03-04T01:54:17;99438.41;;;-4.44;100.00
75681;BME280;64294;49.176;16.626;2023-03-04T01:56:45;99432.81;;;-4.41;100.00
75681;BME280;64294;49.176;16.626;2023-03-04T01:59:22;99424.84;;;-4.51;100.00
75681;BME280;64294;49.176;16.626;2023-03-04T02:04:17;99424.53;;;-4.53;100.00
75681;BME280;64294;49.176;16.626;2023-03-04T02:06:45;99425.63;;;-4.51;100.00
75681;BME280;64294;49.176;16.626;2023-03-04T02:09:11;99418.44;;;-4.45;100.00
75681;BME280;64294;49.176;16.626;2023-03-04T02:11:37;99419.88;;;-4.40;100.00
75681;BME280;64294;49.176;16.626;2023-03-04T02:14:04;99421.69;;;-4.50;100.00
75681;BME280;64294;49.176;16.626;2023-03-04T02:16:30;99409.47;;;-4.62;100.00
75681;BME280;64294;49.176;16.626;2023-03-04T02:18:56;99411.34;;;-4.59;100.00
75681;BME280;64294;49.176;16.626;2023-03-04T02:21:24;99406.19;;;-4.57;100.00
75681;BME280;64294;49.176;16.626;2023-03-04T02:26:24;99399.69;;;-4.63;100.00
75681;BME280;64294;49.176;16.626;2023-03-04T02:28:52;99396.00;;;-4.56;100.00
75681;BME280;64294;49.176;16.626;2023-03-04T02:31:22;99390.59;;;-4.60;100.00
75681;BME280;64294;49.176;16.626;2023-03-04T02:33:51;99401.66;;;-4.63;100.00
75681;BME280;64294;49.176;16.626;2023-03-04T02:36:17;99396.19;;;-4.63;100.00
75681;BME280;64294;49.176;16.626;2023-03-04T02:38:43;99389.94;;;-4.64;100.00
75681;BME280;64294;49.176;16.626;2023-03-04T02:41:11;99392.41;;;-4.69;100.00
75681;BME280;64294;49.176;16.626;2023-03-04T02:43:38;99382.75;;;-4.74;100.00
75681;BME280;64294;49.176;16.626;2023-03-04T02:46:03;99381.44;;;-4.69;100.00
75681;BME280;64294;49.176;16.626;2023-03-04T02:48:30;99375.44;;;-4.64;100.00
75681;BME280;64294;49.176;16.626;2023-03-04T02:50:55;99374.41;;;-4.70;100.00
75681;BME280;64294;49.176;16.626;2023-03-04T02:53:21;99363.66;;;-4.77;100.00
75681;BME280;64294;49.176;16.626;2023-03-04T02:55:47;99370.56;;;-4.73;100.00
75681;BME280;64294;49.176;16.626;2023-03-04T02:58:13;99358.63;;;-4.66;100.00
75681;BME280;64294;49.176;16.626;2023-03-04T03:00:39;99357.19;;;-4.71;100.00
75681;BME280;64294;49.176;16.626;2023-03-04T03:03:05;99360.28;;;-4.69;100.00
75681;BME280;64294;49.176;16.626;2023-03-04T03:05:32;99350.03;;;-4.81;100.00
75681;BME280;64294;49.176;16.626;2023-03-04T03:07:58;99352.84;;;-4.84;100.00
75681;BME280;64294;49.176;16.626;2023-03-04T03:10:25;99353.47;;;-4.77;100.00
75681;BME280;64294;49.176;16.626;2023-03-04T03:12:50;99348.16;;;-4.84;100.00
75681;BME280;64294;49.176;16.626;2023-03-04T03:15:16;99346.16;;;-4.83;100.00
75681;BME280;64294;49.176;16.626;2023-03-04T03:17:42;99344.47;;;-4.77;100.00
75681;BME280;64294;49.176;16.626;2023-03-04T03:20:09;99339.75;;;-4.77;100.00
75681;BME280;64294;49.176;16.626;2023-03-04T03:22:35;99342.59;;;-4.80;100.00
75681;BME280;64294;49.176;16.626;2023-03-04T03:25:00;99337.19;;;-4.84;100.00
75681;BME280;64294;49.176;16.626;2023-03-04T03:27:26;99330.84;;;-4.81;100.00
75681;BME280;64294;49.176;16.626;2023-03-04T03:29:51;99319.88;;;-4.81;100.00
75681;BME280;64294;49.176;16.626;2023-03-04T03:32:17;99316.97;;;-4.90;100.00
75681;BME280;64294;49.176;16.626;2023-03-04T03:34:42;99316.09;;;-5.00;100.00
75681;BME280;64294;49.176;16.626;2023-03-04T03:37:08;99309.84;;;-5.00;100.00
75681;BME280;64294;49.176;16.626;2023-03-04T03:39:33;99312.22;;;-5.02;100.00
75681;BME280;64294;49.176;16.626;2023-03-04T03:41:58;99312.16;;;-5.15;100.00
75681;BME280;64294;49.176;16.626;2023-03-04T03:44:24;99305.47;;;-5.14;100.00
75681;BME280;64294;49.176;16.626;2023-03-04T03:46:49;99310.28;;;-5.18;100.00
75681;BME280;64294;49.176;16.626;2023-03-04T03:49:15;99306.19;;;-5.26;100.00
75681;BME280;64294;49.176;16.626;2023-03-04T03:51:41;99304.66;;;-5.27;100.00
75681;BME280;64294;49.176;16.626;2023-03-04T03:54:07;99305.50;;;-5.30;100.00
75681;BME280;64294;49.176;16.626;2023-03-04T03:56:32;99311.19;;;-5.37;100.00
75681;BME280;64294;49.176;16.626;2023-03-04T03:58:57;99313.56;;;-5.39;100.00
75681;BME280;64294;49.176;16.626;2023-03-04T04:01:24;99320.16;;;-5.37;100.00
75681;BME280;64294;49.176;16.626;2023-03-04T04:03:49;99310.56;;;-5.45;100.00
75681;BME280;64294;49.176;16.626;2023-03-04T04:06:14;99312.78;;;-5.40;100.00
75681;BME280;64294;49.176;16.626;2023-03-04T04:08:40;99309.69;;;-5.42;100.00
75681;BME280;64294;49.176;16.626;2023-03-04T04:11:08;99306.47;;;-5.53;100.00
75681;BME280;64294;49.176;16.626;2023-03-04T04:13:34;99315.47;;;-5.53;100.00
75681;BME280;64294;49.176;16.626;2023-03-04T04:15:59;99317.84;;;-5.55;100.00
75681;BME280;64294;49.176;16.626;2023-03-04T04:18:25;99311.28;;;-5.57;100.00
75681;BME280;64294;49.176;16.626;2023-03-04T04:20:51;99309.38;;;-5.60;100.00
75681;BME280;64294;49.176;16.626;2023-03-04T04:23:16;99305.84;;;-5.61;100.00
75681;BME280;64294;49.176;16.626;2023-03-04T04:25:42;99303.88;;;-5.60;100.00
75681;BME280;64294;49.176;16.626;2023-03-04T04:28:07;99306.28;;;-5.62;100.00
75681;BME280;64294;49.176;16.626;2023-03-04T04:30:33;99308.34;;;-5.66;100.00
75681;BME280;64294;49.176;16.626;2023-03-04T04:32:59;99300.31;;;-5.73;100.00
75681;BME280;64294;49.176;16.626;2023-03-04T04:35:26;99316.03;;;-5.61;100.00
75681;BME280;64294;49.176;16.626;2023-03-04T04:37:52;99312.81;;;-5.72;100.00
75681;BME280;64294;49.176;16.626;2023-03-04T04:40:18;99304.59;;;-5.72;100.00
75681;BME280;64294;49.176;16.626;2023-03-04T04:42:43;99303.63;;;-5.82;100.00
75681;BME280;64294;49.176;16.626;2023-03-04T04:45:09;99307.22;;;-5.85;100.00
75681;BME280;64294;49.176;16.626;2023-03-04T04:47:35;99311.59;;;-5.88;100.00
75681;BME280;64294;49.176;16.626;2023-03-04T04:50:00;99308.34;;;-5.83;100.00
75681;BME280;64294;49.176;16.626;2023-03-04T04:52:26;99311.59;;;-5.88;100.00
75681;BME280;64294;49.176;16.626;2023-03-04T04:54:51;99305.25;;;-5.85;100.00
75681;BME280;64294;49.176;16.626;2023-03-04T04:57:17;99310.59;;;-5.94;100.00
75681;BME280;64294;49.176;16.626;2023-03-04T04:59:42;99314.66;;;-5.86;100.00
75681;BME280;64294;49.176;16.626;2023-03-04T05:02:07;99308.69;;;-5.97;100.00
75681;BME280;64294;49.176;16.626;2023-03-04T05:04:33;99307.84;;;-5.94;100.00
75681;BME280;64294;49.176;16.626;2023-03-04T05:06:58;99308.53;;;-5.90;100.00
75681;BME280;64294;49.176;16.626;2023-03-04T05:09:23;99317.25;;;-5.95;100.00
75681;BME280;64294;49.176;16.626;2023-03-04T05:11:49;99316.28;;;-6.04;100.00
75681;BME280;64294;49.176;16.626;2023-03-04T05:14:15;99306.47;;;-6.02;100.00
75681;BME280;64294;49.176;16.626;2023-03-04T05:16:40;99314.25;;;-6.00;100.00
75681;BME280;64294;49.176;16.626;2023-03-04T05:19:06;99304.91;;;-6.03;100.00
75681;BME280;64294;49.176;16.626;2023-03-04T05:21:31;99298.59;;;-6.00;100.00
75681;BME280;64294;49.176;16.626;2023-03-04T05:23:56;99304.75;;;-5.96;100.00
75681;BME280;64294;49.176;16.626;2023-03-04T05:26:22;99289.97;;;-5.98;100.00
75681;BME280;64294;49.176;16.626;2023-03-04T05:28:50;99291.44;;;-5.94;100.00
75681;BME280;64294;49.176;16.626;2023-03-04T05:31:16;99293.88;;;-5.99;100.00
75681;BME280;64294;49.176;16.626;2023-03-04T05:33:44;99285.97;;;-5.94;100.00
75681;BME280;64294;49.176;16.626;2023-03-04T05:36:10;99299.22;;;-5.92;100.00
75681;BME280;64294;49.176;16.626;2023-03-04T05:38:36;99284.13;;;-5.84;100.00
75681;BME280;64294;49.176;16.626;2023-03-04T05:41:04;99293.31;;;-5.74;100.00
75681;BME280;64294;49.176;16.626;2023-03-04T05:43:31;99290.03;;;-5.69;100.00
75681;BME280;64294;49.176;16.626;2023-03-04T05:46:00;99289.28;;;-5.54;100.00
75681;BME280;64294;49.176;16.626;2023-03-04T05:48:26;99297.03;;;-5.36;100.00
75681;BME280;64294;49.176;16.626;2023-03-04T05:50:57;99298.81;;;-5.13;100.00
75681;BME280;64294;49.176;16.626;2023-03-04T05:53:23;99294.06;;;-4.96;100.00
75681;BME280;64294;49.176;16.626;2023-03-04T05:55:49;99296.25;;;-4.62;100.00
75681;BME280;64294;49.176;16.626;2023-03-04T05:58:15;99310.69;;;-4.33;100.00
75681;BME280;64294;49.176;16.626;2023-03-04T06:00:41;99305.00;;;-4.00;100.00
75681;BME280;64294;49.176;16.626;2023-03-04T06:03:06;99313.91;;;-3.83;100.00
75681;BME280;64294;49.176;16.626;2023-03-04T06:05:36;99313.47;;;-3.82;100.00
75681;BME280;64294;49.176;16.626;2023-03-04T06:08:02;99324.66;;;-3.76;99.06
75681;BME280;64294;49.176;16.626;2023-03-04T06:10:27;99327.09;;;-3.66;98.51
75681;BME280;64294;49.176;16.626;2023-03-04T06:12:52;99329.16;;;-3.44;97.01
75681;BME280;64294;49.176;16.626;2023-03-04T06:15:18;99339.72;;;-3.43;95.90
75681;BME280;64294;49.176;16.626;2023-03-04T06:17:43;99338.72;;;-3.49;96.89
75681;BME280;64294;49.176;16.626;2023-03-04T06:20:10;99345.50;;;-3.28;96.91
75681;BME280;64294;49.176;16.626;2023-03-04T06:22:35;99349.66;;;-3.11;95.50
75681;BME280;64294;49.176;16.626;2023-03-04T06:25:01;99348.44;;;-2.75;93.71
75681;BME280;64294;49.176;16.626;2023-03-04T06:27:26;99351.66;;;-2.11;89.82
75681;BME280;64294;49.176;16.626;2023-03-04T06:29:52;99356.47;;;-1.13;85.99
75681;BME280;64294;49.176;16.626;2023-03-04T06:32:18;99354.78;;;0.42;77.43
75681;BME280;64294;49.176;16.626;2023-03-04T06:34:43;99359.78;;;2.16;69.12
75681;BME280;64294;49.176;16.626;2023-03-04T06:37:09;99360.47;;;3.77;62.49
75681;BME280;64294;49.176;16.626;2023-03-04T06:39:34;99360.25;;;4.70;57.23
75681;BME280;64294;49.176;16.626;2023-03-04T06:42:00;99372.31;;;5.52;57.72
75681;BME280;64294;49.176;16.626;2023-03-04T06:44:25;99369.47;;;6.51;52.73
75681;BME280;64294;49.176;16.626;2023-03-04T06:46:51;99365.03;;;7.75;51.41
75681;BME280;64294;49.176;16.626;2023-03-04T06:49:19;99364.28;;;8.51;46.70
75681;BME280;64294;49.176;16.626;2023-03-04T06:51:45;99366.41;;;8.69;45.03
75681;BME280;64294;49.176;16.626;2023-03-04T06:54:10;99367.25;;;9.37;43.06
75681;BME280;64294;49.176;16.626;2023-03-04T06:56:35;99365.88;;;10.38;41.62
75681;BME280;64294;49.176;16.626;2023-03-04T06:59:01;99370.66;;;10.88;39.11
75681;BME280;64294;49.176;16.626;2023-03-04T07:01:27;99366.41;;;11.88;38.01
75681;BME280;64294;49.176;16.626;2023-03-04T07:03:54;99378.22;;;12.83;35.07
75681;BME280;64294;49.176;16.626;2023-03-04T07:06:23;99364.41;;;12.09;35.56
75681;BME280;64294;49.176;16.626;2023-03-04T07:08:49;99375.88;;;12.66;38.31
75681;BME280;64294;49.176;16.626;2023-03-04T07:11:15;99368.75;;;13.50;33.69
75681;BME280;64294;49.176;16.626;2023-03-04T07:13:41;99368.84;;;14.24;32.34
75681;BME280;64294;49.176;16.626;2023-03-04T07:16:09;99371.84;;;15.64;29.70
75681;BME280;64294;49.176;16.626;2023-03-04T07:18:35;99374.25;;;16.15;29.12
75681;BME280;64294;49.176;16.626;2023-03-04T07:21:01;99382.34;;;16.51;29.20
75681;BME280;64294;49.176;16.626;2023-03-04T07:23:27;99377.75;;;16.63;27.96
75681;BME280;64294;49.176;16.626;2023-03-04T07:25:53;99378.81;;;16.18;28.17
75681;BME280;64294;49.176;16.626;2023-03-04T07:28:19;99377.50;;;15.56;28.92
75681;BME280;64294;49.176;16.626;2023-03-04T07:30:44;99376.69;;;17.61;26.68
75681;BME280;64294;49.176;16.626;2023-03-04T07:33:10;99379.84;;;17.47;26.30
75681;BME280;64294;49.176;16.626;2023-03-04T07:35:39;99373.47;;;17.05;26.63
75681;BME280;64294;49.176;16.626;2023-03-04T07:38:04;99368.38;;;18.07;26.22
75681;BME280;64294;49.176;16.626;2023-03-04T07:40:30;99366.38;;;17.65;26.91
75681;BME280;64294;49.176;16.626;2023-03-04T07:42:55;99368.44;;;18.70;25.34
75681;BME280;64294;49.176;16.626;2023-03-04T07:45:22;99367.53;;;18.14;25.49
75681;BME280;64294;49.176;16.626;2023-03-04T07:47:48;99372.06;;;19.46;24.31
75681;BME280;64294;49.176;16.626;2023-03-04T07:50:14;99374.59;;;19.42;24.25
75681;BME280;64294;49.176;16.626;2023-03-04T07:52:42;99368.84;;;20.79;22.90
75681;BME280;64294;49.176;16.626;2023-03-04T07:55:10;99376.22;;;20.22;23.37
75681;BME280;64294;49.176;16.626;2023-03-04T07:57:46;99374.34;;;19.67;23.09
75681;BME280;64294;49.176;16.626;2023-03-04T08:00:13;99373.69;;;20.07;22.99
75681;BME280;64294;49.176;16.626;2023-03-04T08:02:40;99366.19;;;19.15;24.06
75681;BME280;64294;49.176;16.626;2023-03-04T08:05:06;99363.53;;;19.85;23.34
75681;BME280;64294;49.176;16.626;2023-03-04T08:07:32;99358.69;;;18.64;24.30
75681;BME280;64294;49.176;16.626;2023-03-04T08:09:58;99371.69;;;19.03;24.38
75681;BME280;64294;49.176;16.626;2023-03-04T08:12:23;99369.44;;;20.47;23.34
75681;BME280;64294;49.176;16.626;2023-03-04T08:14:50;99364.56;;;21.21;22.46
75681;BME280;64294;49.176;16.626;2023-03-04T08:17:16;99366.22;;;20.62;22.54
75681;BME280;64294;49.176;16.626;2023-03-04T08:19:41;99356.81;;;20.40;22.24
75681;BME280;64294;49.176;16.626;2023-03-04T08:22:07;99358.88;;;19.80;23.33
75681;BME280;64294;49.176;16.626;2023-03-04T08:24:33;99360.06;;;19.96;22.90
75681;BME280;64294;49.176;16.626;2023-03-04T08:26:59;99349.44;;;19.58;23.65
75681;BME280;64294;49.176;16.626;2023-03-04T08:29:24;99355.72;;;19.95;22.98
75681;BME280;64294;49.176;16.626;2023-03-04T08:31:51;99351.53;;;18.82;23.96
75681;BME280;64294;49.176;16.626;2023-03-04T08:34:19;99349.16;;;20.83;21.96
75681;BME280;64294;49.176;16.626;2023-03-04T08:36:45;99345.34;;;20.91;21.75
75681;BME280;64294;49.176;16.626;2023-03-04T08:39:12;99345.38;;;20.40;22.20
75681;BME280;64294;49.176;16.626;2023-03-04T08:41:39;99346.56;;;21.40;21.24
75681;BME280;64294;49.176;16.626;2023-03-04T08:44:04;99351.91;;;20.21;22.05
75681;BME280;64294;49.176;16.626;2023-03-04T08:46:30;99346.09;;;20.60;21.72
75681;BME280;64294;49.176;16.626;2023-03-04T08:48:55;99356.16;;;20.61;22.22
75681;BME280;64294;49.176;16.626;2023-03-04T08:51:21;99354.19;;;20.04;22.12
75681;BME280;64294;49.176;16.626;2023-03-04T08:53:47;99346.28;;;20.83;21.81
75681;BME280;64294;49.176;16.626;2023-03-04T08:56:12;99352.97;;;21.29;21.04
75681;BME280;64294;49.176;16.626;2023-03-04T08:58:38;99347.38;;;21.85;20.64
75681;BME280;64294;49.176;16.626;2023-03-04T09:01:07;99338.81;;;22.18;20.36
75681;BME280;64294;49.176;16.626;2023-03-04T09:03:33;99347.31;;;22.75;19.75
75681;BME280;64294;49.176;16.626;2023-03-04T09:06:01;99335.22;;;23.60;18.83
75681;BME280;64294;49.176;16.626;2023-03-04T09:08:26;99329.97;;;22.49;20.05
75681;BME280;64294;49.176;16.626;2023-03-04T09:10:53;99330.34;;;21.87;19.98
75681;BME280;64294;49.176;16.626;2023-03-04T09:13:19;99338.59;;;22.38;19.34
75681;BME280;64294;49.176;16.626;2023-03-04T09:15:46;99341.53;;;21.19;20.63
75681;BME280;64294;49.176;16.626;2023-03-04T09:18:13;99328.13;;;22.42;19.11
75681;BME280;64294;49.176;16.626;2023-03-04T09:20:39;99329.75;;;23.52;18.90
75681;BME280;64294;49.176;16.626;2023-03-04T09:23:05;99319.94;;;22.95;18.90
75681;BME280;64294;49.176;16.626;2023-03-04T09:25:31;99322.63;;;23.91;18.23
75681;BME280;64294;49.176;16.626;2023-03-04T09:27:56;99324.47;;;23.72;17.87
75681;BME280;64294;49.176;16.626;2023-03-04T09:30:22;99334.03;;;23.77;18.15
75681;BME280;64294;49.176;16.626;2023-03-04T09:32:47;99328.75;;;23.11;18.30
75681;BME280;64294;49.176;16.626;2023-03-04T09:35:13;99328.25;;;23.89;18.08
75681;BME280;64294;49.176;16.626;2023-03-04T09:37:38;99326.06;;;23.75;17.89
75681;BME280;64294;49.176;16.626;2023-03-04T09:40:05;99324.47;;;23.72;17.64
75681;BME280;64294;49.176;16.626;2023-03-04T09:42:42;99323.50;;;23.56;18.39
75681;BME280;64294;49.176;16.626;2023-03-04T09:45:14;99310.81;;;22.63;18.47
75681;BME280;64294;49.176;16.626;2023-03-04T09:47:40;99319.78;;;22.46;18.25
75681;BME280;64294;49.176;16.626;2023-03-04T09:50:08;99317.66;;;22.35;18.33
75681;BME280;64294;49.176;16.626;2023-03-04T09:55:59;99316.38;;;19.26;21.32
75681;BME280;64294;49.176;16.626;2023-03-04T10:01:55;99315.38;;;22.10;18.89
75681;BME280;64294;49.176;16.626;2023-03-04T10:04:28;99311.06;;;22.32;18.57
75681;BME280;64294;49.176;16.626;2023-03-04T10:06:55;99317.34;;;21.20;19.71
75681;BME280;64294;49.176;16.626;2023-03-04T10:10:12;99321.91;;;21.35;19.80
75681;BME280;64294;49.176;16.626;2023-03-04T10:12:21;99324.91;;;22.83;18.40
75681;BME280;64294;49.176;16.626;2023-03-04T10:17:46;99305.81;;;22.29;19.41
75681;BME280;64294;49.176;16.626;2023-03-04T10:20:23;99311.09;;;21.99;19.33
75681;BME280;64294;49.176;16.626;2023-03-04T10:23:01;99309.16;;;23.56;17.96
75681;BME280;64294;49.176;16.626;2023-03-04T10:25:33;99308.03;;;21.74;19.30
75681;BME280;64294;49.176;16.626;2023-03-04T10:28:09;99298.00;;;21.85;19.61
75681;BME280;64294;49.176;16.626;2023-03-04T10:33:25;99306.50;;;19.75;21.47
75681;BME280;64294;49.176;16.626;2023-03-04T10:38:29;99307.09;;;19.83;21.57
75681;BME280;64294;49.176;16.626;2023-03-04T10:40:56;99290.09;;;20.98;20.25
75681;BME280;64294;49.176;16.626;2023-03-04T10:43:22;99302.78;;;21.70;19.78
75681;BME280;64294;49.176;16.626;2023-03-04T10:45:54;99302.50;;;21.33;20.27
75681;BME280;64294;49.176;16.626;2023-03-04T10:48:26;99299.38;;;20.05;20.92
75681;BME280;64294;49.176;16.626;2023-03-04T10:50:52;99297.50;;;21.55;20.55
75681;BME280;64294;49.176;16.626;2023-03-04T10:53:30;99309.06;;;21.24;20.00
75681;BME280;64294;49.176;16.626;2023-03-04T10:55:57;99311.66;;;20.17;20.83
75681;BME280;64294;49.176;16.626;2023-03-04T10:58:23;99303.84;;;20.27;20.90
75681;BME280;64294;49.176;16.626;2023-03-04T11:01:05;99289.66;;;21.01;20.13
75681;BME280;64294;49.176;16.626;2023-03-04T11:03:33;99301.66;;;21.00;20.40
75681;BME280;64294;49.176;16.626;2023-03-04T11:06:10;99303.72;;;20.88;20.25
75681;BME280;64294;49.176;16.626;2023-03-04T11:08:39;99307.31;;;20.67;20.44
75681;BME280;64294;49.176;16.626;2023-03-04T11:14:24;99294.66;;;19.21;22.15
75681;BME280;64294;49.176;16.626;2023-03-04T11:16:59;99298.03;;;17.63;23.66
75681;BME280;64294;49.176;16.626;2023-03-04T11:19:37;99289.25;;;18.59;22.98
75681;BME280;64294;49.176;16.626;2023-03-04T11:22:04;99295.06;;;18.52;22.89
75681;BME280;64294;49.176;16.626;2023-03-04T11:24:32;99288.13;;;18.72;22.93
75681;BME280;64294;49.176;16.626;2023-03-04T11:29:50;99299.63;;;17.74;23.31
75681;BME280;64294;49.176;16.626;2023-03-04T11:32:22;99281.34;;;17.94;23.73
75681;BME280;64294;49.176;16.626;2023-03-04T11:35:18;99289.00;;;18.28;23.67
75681;BME280;64294;49.176;16.626;2023-03-04T11:37:56;99273.94;;;17.81;24.01
75681;BME280;64294;49.176;16.626;2023-03-04T11:40:56;99277.09;;;18.12;23.63
75681;BME280;64294;49.176;16.626;2023-03-04T11:43:37;99281.28;;;17.84;24.14
75681;BME280;64294;49.176;16.626;2023-03-04T11:52:11;99280.97;;;18.07;23.68
75681;BME280;64294;49.176;16.626;2023-03-04T12:05:50;99271.50;;;16.32;26.35
75681;BME280;64294;49.176;16.626;2023-03-04T12:16:47;99264.31;;;17.33;24.73
75681;BME280;64294;49.176;16.626;2023-03-04T12:46:17;99249.97;;;14.53;29.23
75681;BME280;64294;49.176;16.626;2023-03-04T12:51:35;99237.16;;;14.52;30.10
75681;BME280;64294;49.176;16.626;2023-03-04T12:59:55;99225.28;;;11.91;34.66
75681;BME280;64294;49.176;16.626;2023-03-04T13:07:54;99213.09;;;10.94;37.34
75681;BME280;64294;49.176;16.626;2023-03-04T13:10:22;99219.03;;;10.90;37.63
75681;BME280;64294;49.176;16.626;2023-03-04T13:12:55;99223.03;;;11.08;37.22
75681;BME280;64294;49.176;16.626;2023-03-04T13:22:58;99217.84;;;10.59;38.50
75681;BME280;64294;49.176;16.626;2023-03-04T13:25:38;99213.63;;;10.92;38.49
75681;BME280;64294;49.176;16.626;2023-03-04T13:41:15;99214.94;;;11.39;38.58
75681;BME280;64294;49.176;16.626;2023-03-04T13:51:39;99224.59;;;9.79;41.47
75681;BME280;64294;49.176;16.626;2023-03-04T13:54:20;99213.41;;;9.92;41.43
75681;BME280;64294;49.176;16.626;2023-03-04T13:59:42;99216.84;;;9.16;43.93
75681;BME280;64294;49.176;16.626;2023-03-04T14:02:14;99205.56;;;9.02;44.21
75681;BME280;64294;49.176;16.626;2023-03-04T14:04:50;99208.66;;;8.99;44.66
75681;BME280;64294;49.176;16.626;2023-03-04T14:10:00;99206.88;;;8.28;46.10
75681;BME280;64294;49.176;16.626;2023-03-04T14:12:30;99203.09;;;8.26;46.46
75681;BME280;64294;49.176;16.626;2023-03-04T14:14:58;99204.84;;;8.29;46.52
75681;BME280;64294;49.176;16.626;2023-03-04T14:17:35;99190.28;;;8.60;46.13
75681;BME280;64294;49.176;16.626;2023-03-04T14:20:03;99191.03;;;8.36;46.46
75681;BME280;64294;49.176;16.626;2023-03-04T14:22:30;99189.88;;;7.96;47.50
75681;BME280;64294;49.176;16.626;2023-03-04T14:25:14;99191.81;;;7.77;47.95
75681;BME280;64294;49.176;16.626;2023-03-04T14:27:45;99194.09;;;7.43;49.12
75681;BME280;64294;49.176;16.626;2023-03-04T14:30:23;99202.13;;;7.22;49.95
75681;BME280;64294;49.176;16.626;2023-03-04T14:32:51;99205.16;;;7.29;50.16
75681;BME280;64294;49.176;16.626;2023-03-04T14:35:23;99209.31;;;7.06;51.05
75681;BME280;64294;49.176;16.626;2023-03-04T14:40:52;99193.00;;;6.63;52.01
75681;BME280;64294;49.176;16.626;2023-03-04T14:43:25;99193.59;;;6.40;52.92
75681;BME280;64294;49.176;16.626;2023-03-04T14:45:54;99204.53;;;6.26;53.80
75681;BME280;64294;49.176;16.626;2023-03-04T14:48:28;99203.06;;;6.14;53.93
75681;BME280;64294;49.176;16.626;2023-03-04T14:50:56;99199.22;;;5.72;55.61
75681;BME280;64294;49.176;16.626;2023-03-04T14:53:25;99198.47;;;5.44;56.80
75681;BME280;64294;49.176;16.626;2023-03-04T14:58:22;99194.63;;;5.25;57.60